createdAt,value
2023-01-23T00:02:08.166Z,53.10
2023-01-23T00:04:34.643Z,56.07
2023-01-23T00:07:03.429Z,57.83
2023-01-23T00:09:30.188Z,53.67
2023-01-23T00:11:56.658Z,54.90
2023-01-23T00:14:23.174Z,67.57
2023-01-23T00:16:49.810Z,64.23
2023-01-23T00:19:16.275Z,57.97
2023-01-23T00:21:42.912Z,66.07
2023-01-23T00:24:11.283Z,61.03
2023-01-23T00:26:37.809Z,67.43
2023-01-23T00:29:04.716Z,68.10
2023-01-23T00:31:37.652Z,66.37
2023-01-23T00:34:07.157Z,60.37
2023-01-23T00:36:36.515Z,61.83
2023-01-23T00:39:06.900Z,62.00
2023-01-23T00:41:33.695Z,65.97
2023-01-23T00:44:00.227Z,71.23
2023-01-23T00:46:26.970Z,75.57
2023-01-23T00:48:53.460Z,64.53
2023-01-23T00:51:20.053Z,64.70
2023-01-23T00:53:46.920Z,63.73
2023-01-23T00:56:13.719Z,69.83
2023-01-23T00:58:42.826Z,68.50
2023-01-23T01:01:11.671Z,70.27
2023-01-23T01:03:38.288Z,57.00
2023-01-23T01:06:05.065Z,67.17
2023-01-23T01:08:31.604Z,69.53
2023-01-23T01:10:58.265Z,75.33
2023-01-23T01:13:25.069Z,70.47
2023-01-23T01:15:52.922Z,73.87
2023-01-23T01:18:20.807Z,77.90
2023-01-23T01:20:48.142Z,78.80
2023-01-23T01:23:15.024Z,69.40
2023-01-23T01:25:41.748Z,67.77
2023-01-23T01:28:08.477Z,77.23
2023-01-23T01:30:37.103Z,81.77
2023-01-23T01:33:03.851Z,76.30
2023-01-23T01:35:30.424Z,72.10
2023-01-23T01:37:57.055Z,78.87
2023-01-23T01:40:26.592Z,75.73
2023-01-23T01:42:59.658Z,72.40
2023-01-23T01:46:03.741Z,75.83
2023-01-23T01:48:35.163Z,83.33
2023-01-23T01:51:05.778Z,71.57
2023-01-23T01:53:33.233Z,75.70
2023-01-23T01:56:00.527Z,79.20
2023-01-23T01:58:27.548Z,80.00
2023-01-23T02:00:54.932Z,85.50
2023-01-23T02:03:21.661Z,82.07
2023-01-23T02:05:49.935Z,77.73
2023-01-23T02:08:42.261Z,83.07
2023-01-23T02:11:08.869Z,78.03
2023-01-23T02:13:40.076Z,83.77
2023-01-23T02:16:08.119Z,86.73
2023-01-23T02:18:36.512Z,87.63
2023-01-23T02:21:07.664Z,88.77
2023-01-23T02:23:58.397Z,74.47
2023-01-23T02:26:45.845Z,75.83
2023-01-23T02:29:13.641Z,85.63
2023-01-23T02:31:42.827Z,84.50
2023-01-23T02:34:11.155Z,87.53
2023-01-23T02:36:37.874Z,81.47
2023-01-23T02:39:09.876Z,89.50
2023-01-23T02:41:46.067Z,95.10
2023-01-23T02:44:27.642Z,102.23
2023-01-23T02:46:59.482Z,83.00
2023-01-23T02:49:26.573Z,90.03
2023-01-23T02:51:54.197Z,86.07
2023-01-23T02:54:21.659Z,86.67
2023-01-23T02:56:48.211Z,90.60
2023-01-23T02:59:33.373Z,77.20
2023-01-23T03:02:00.308Z,88.10
2023-01-23T03:04:26.894Z,94.60
2023-01-23T03:06:53.449Z,94.17
2023-01-23T03:09:20.177Z,93.67
2023-01-23T03:11:46.805Z,95.73
2023-01-23T03:14:16.127Z,91.40
2023-01-23T03:16:42.998Z,104.70
2023-01-23T03:19:10.205Z,104.43
2023-01-23T03:21:40.987Z,93.60
2023-01-23T03:24:09.611Z,99.47
2023-01-23T03:26:39.746Z,100.40
2023-01-23T03:29:25.533Z,86.83
2023-01-23T03:31:52.548Z,99.70
2023-01-23T03:34:19.127Z,91.23
2023-01-23T03:36:46.090Z,96.00
2023-01-23T03:39:31.645Z,97.33
2023-01-23T03:41:58.292Z,92.37
2023-01-23T03:44:24.827Z,102.00
2023-01-23T03:46:52.409Z,95.47
2023-01-23T03:49:19.502Z,104.40
2023-01-23T03:51:46.140Z,94.40
2023-01-23T03:54:14.560Z,95.03
2023-01-23T03:56:42.953Z,90.97
2023-01-23T03:59:09.685Z,92.17
2023-01-23T04:01:36.731Z,93.97
2023-01-23T04:04:03.424Z,90.63
2023-01-23T04:06:30.168Z,89.47
2023-01-23T04:08:58.188Z,92.43
2023-01-23T04:11:28.645Z,92.83
2023-01-23T04:13:55.315Z,81.00
2023-01-23T04:16:22.899Z,82.40
2023-01-23T04:18:50.708Z,78.67
2023-01-23T04:21:17.428Z,95.77
2023-01-23T04:23:44.097Z,89.20
2023-01-23T04:26:10.778Z,110.13
2023-01-23T04:28:37.267Z,86.77
2023-01-23T04:31:04.367Z,98.77
2023-01-23T04:33:31.141Z,89.00
2023-01-23T04:36:03.607Z,90.57
2023-01-23T04:38:31.464Z,96.13
2023-01-23T04:40:58.025Z,98.70
2023-01-23T04:43:25.352Z,90.83
2023-01-23T04:45:53.508Z,107.70
2023-01-23T04:48:20.104Z,95.33
2023-01-23T04:50:46.570Z,86.90
2023-01-23T04:53:14.278Z,88.97
2023-01-23T04:55:41.235Z,92.87
2023-01-23T04:58:08.140Z,89.47
2023-01-23T05:00:34.874Z,84.77
2023-01-23T05:03:02.650Z,88.00
2023-01-23T05:05:29.322Z,87.87
2023-01-23T05:07:56.161Z,85.17
2023-01-23T05:10:22.874Z,93.80
2023-01-23T05:12:49.547Z,77.77
2023-01-23T05:15:17.357Z,88.47
2023-01-23T05:17:44.058Z,97.63
2023-01-23T05:20:11.079Z,87.53
2023-01-23T05:22:37.784Z,85.53
2023-01-23T05:25:04.636Z,82.27
2023-01-23T05:27:31.265Z,92.97
2023-01-23T05:29:57.936Z,79.50
2023-01-23T05:32:24.442Z,85.67
2023-01-23T05:34:50.943Z,96.90
2023-01-23T05:37:17.675Z,84.27
2023-01-23T05:39:44.339Z,83.93
2023-01-23T05:42:10.835Z,78.77
2023-01-23T05:44:37.449Z,93.47
2023-01-23T05:47:04.035Z,87.77
2023-01-23T05:49:30.532Z,82.43
2023-01-23T05:51:57.117Z,75.97
2023-01-23T05:54:23.714Z,81.73
2023-01-23T05:56:50.198Z,82.90
2023-01-23T05:59:16.744Z,91.73
2023-01-23T06:01:43.256Z,88.57
2023-01-23T06:04:09.799Z,78.13
2023-01-23T06:06:36.672Z,76.17
2023-01-23T06:09:03.473Z,86.47
2023-01-23T06:11:30.037Z,77.60
2023-01-23T06:13:56.900Z,82.10
2023-01-23T06:16:23.396Z,85.93
2023-01-23T06:18:49.913Z,81.50
2023-01-23T06:21:18.501Z,71.67
2023-01-23T06:23:45.976Z,81.10
2023-01-23T06:26:13.173Z,91.57
2023-01-23T06:28:40.361Z,76.13
2023-01-23T06:31:09.355Z,74.60
2023-01-23T06:33:38.875Z,80.03
2023-01-23T06:36:06.798Z,73.80
2023-01-23T06:38:33.520Z,80.90
2023-01-23T06:41:00.024Z,89.53
2023-01-23T06:43:27.181Z,85.53
2023-01-23T06:45:53.710Z,88.07
2023-01-23T06:48:20.844Z,78.60
2023-01-23T06:50:47.833Z,83.07
2023-01-23T06:53:15.538Z,75.57
2023-01-23T06:55:42.281Z,82.00
2023-01-23T06:58:09.192Z,73.23
2023-01-23T07:00:35.773Z,72.53
2023-01-23T07:03:05.486Z,83.93
2023-01-23T07:05:33.056Z,70.07
2023-01-23T07:07:59.591Z,77.90
2023-01-23T07:10:26.411Z,79.27
2023-01-23T07:12:53.272Z,81.70
2023-01-23T07:15:19.765Z,79.27
2023-01-23T07:17:46.259Z,79.63
2023-01-23T07:20:13.104Z,69.87
2023-01-23T07:22:40.112Z,72.27
2023-01-23T07:25:07.925Z,78.70
2023-01-23T07:27:34.716Z,60.87
2023-01-23T07:30:01.249Z,70.57
2023-01-23T07:32:27.831Z,74.93
2023-01-23T07:34:54.968Z,66.83
2023-01-23T07:37:21.597Z,75.97
2023-01-23T07:39:49.133Z,80.57
2023-01-23T07:42:15.872Z,67.40
2023-01-23T07:44:42.399Z,80.00
2023-01-23T07:47:09.062Z,70.17
2023-01-23T07:49:35.861Z,70.70
2023-01-23T07:52:02.479Z,75.70
2023-01-23T07:54:29.036Z,71.27
2023-01-23T07:56:56.385Z,72.13
2023-01-23T07:59:22.927Z,68.63
2023-01-23T08:01:51.290Z,76.37
2023-01-23T08:04:21.060Z,66.03
2023-01-23T08:06:47.639Z,73.00
2023-01-23T08:09:14.352Z,65.97
2023-01-23T08:11:41.654Z,82.67
2023-01-23T08:14:08.146Z,80.77
2023-01-23T08:16:34.749Z,70.80
2023-01-23T08:19:01.563Z,85.73
2023-01-23T08:21:28.107Z,73.27
2023-01-23T08:23:54.551Z,69.27
2023-01-23T08:26:21.403Z,61.23
2023-01-23T08:28:47.979Z,73.33
2023-01-23T08:31:15.871Z,74.57
2023-01-23T08:33:42.904Z,67.43
2023-01-23T08:36:12.235Z,69.43
2023-01-23T08:38:38.991Z,73.67
2023-01-23T08:41:05.765Z,70.13
2023-01-23T08:43:32.435Z,69.57
2023-01-23T08:45:59.745Z,68.87
2023-01-23T08:48:27.670Z,68.57
2023-01-23T08:51:03.210Z,67.30
2023-01-23T08:53:30.994Z,59.17
2023-01-23T08:56:05.048Z,66.67
2023-01-23T08:58:31.994Z,57.17
2023-01-23T09:00:58.664Z,64.17
2023-01-23T09:03:25.300Z,64.50
2023-01-23T09:05:52.032Z,58.27
2023-01-23T09:08:18.668Z,60.40
2023-01-23T09:10:45.154Z,61.93
2023-01-23T09:13:12.109Z,63.27
2023-01-23T09:15:40.024Z,68.90
2023-01-23T09:18:06.583Z,66.13
2023-01-23T09:20:33.338Z,61.17
2023-01-23T09:23:00.042Z,65.43
2023-01-23T09:25:26.735Z,67.43
2023-01-23T09:27:53.523Z,72.03
2023-01-23T09:30:20.521Z,67.87
2023-01-23T09:32:47.317Z,67.33
2023-01-23T09:35:13.961Z,71.60
2023-01-23T09:37:59.721Z,69.47
2023-01-23T09:40:35.573Z,71.03
2023-01-23T09:43:09.690Z,64.20
2023-01-23T09:45:37.396Z,67.83
2023-01-23T09:48:24.268Z,65.13
2023-01-23T09:51:01.657Z,70.83
2023-01-23T09:53:35.281Z,66.97
2023-01-23T09:56:23.267Z,65.63
2023-01-23T09:59:24.799Z,61.27
2023-01-23T10:01:51.576Z,68.60
2023-01-23T10:04:19.754Z,67.93
2023-01-23T10:07:08.473Z,68.63
2023-01-23T10:10:14.896Z,62.03
2023-01-23T10:13:03.111Z,70.53
2023-01-23T10:15:53.699Z,67.70
2023-01-23T10:18:28.524Z,70.93
2023-01-23T10:21:08.082Z,64.60
2023-01-23T10:23:57.451Z,65.63
2023-01-23T10:26:28.057Z,64.77
2023-01-23T10:28:59.753Z,67.07
2023-01-23T10:31:38.536Z,68.43
2023-01-23T10:34:11.376Z,64.37
2023-01-23T10:36:53.865Z,65.07
2023-01-23T10:39:26.883Z,65.00
2023-01-23T10:42:01.492Z,61.27
2023-01-23T10:44:28.824Z,66.30
2023-01-23T10:47:00.996Z,61.13
2023-01-23T10:49:35.186Z,68.30
2023-01-23T10:52:02.234Z,59.47
2023-01-23T10:54:32.563Z,53.90
2023-01-23T10:57:02.553Z,58.03
2023-01-23T10:59:36.233Z,55.53
2023-01-23T11:02:18.595Z,59.20
2023-01-23T11:04:47.535Z,53.30
2023-01-23T11:07:19.995Z,55.03
2023-01-23T11:10:12.229Z,58.87
2023-01-23T11:12:50.387Z,59.50
2023-01-23T11:15:31.502Z,55.10
2023-01-23T11:18:01.091Z,55.93
2023-01-23T11:20:37.521Z,55.53
2023-01-23T11:23:16.002Z,57.83
2023-01-23T11:25:43.576Z,57.27
2023-01-23T11:28:31.187Z,55.00
2023-01-23T11:31:16.260Z,55.40
2023-01-23T11:33:54.960Z,57.40
2023-01-23T11:36:38.655Z,54.57
2023-01-23T11:39:35.954Z,53.67
2023-01-23T11:42:02.727Z,59.27
2023-01-23T11:44:32.347Z,53.90
2023-01-23T11:47:07.571Z,54.20
2023-01-23T11:50:02.039Z,56.43
2023-01-23T11:52:34.738Z,56.30
2023-01-23T11:55:26.341Z,58.80
2023-01-23T11:58:14.772Z,63.70
2023-01-23T12:00:41.558Z,54.60
2023-01-23T12:03:18.168Z,58.90
2023-01-23T12:06:13.818Z,52.77
2023-01-23T12:09:16.774Z,56.40
2023-01-23T12:12:24.613Z,58.80
2023-01-23T12:15:05.193Z,66.40
2023-01-23T12:17:42.676Z,57.60
2023-01-23T12:20:24.289Z,61.03
2023-01-23T12:23:08.941Z,57.67
2023-01-23T12:25:40.060Z,60.90
2023-01-23T12:28:18.131Z,65.27
2023-01-23T12:31:05.581Z,62.43
2023-01-23T12:33:43.680Z,65.10
2023-01-23T12:36:32.079Z,65.10
2023-01-23T12:39:21.004Z,60.77
2023-01-23T12:41:53.540Z,65.07
2023-01-23T12:44:42.046Z,61.07
2023-01-23T12:47:16.787Z,68.43
2023-01-23T12:49:58.762Z,68.73
2023-01-23T12:52:34.982Z,62.83
2023-01-23T12:55:19.247Z,63.40
2023-01-23T12:57:59.612Z,65.73
2023-01-23T13:00:52.858Z,65.83
2023-01-23T13:03:37.457Z,61.77
2023-01-23T13:06:18.625Z,63.47
2023-01-23T13:09:18.720Z,63.10
2023-01-23T13:12:23.615Z,68.33
2023-01-23T13:15:34.434Z,64.73
2023-01-23T13:18:03.553Z,59.03
2023-01-23T13:20:56.704Z,60.40
2023-01-23T13:23:32.603Z,56.87
2023-01-23T13:26:19.682Z,57.80
2023-01-23T13:28:57.184Z,53.13
2023-01-23T13:31:36.893Z,53.53
2023-01-23T13:34:16.221Z,52.53
2023-01-23T13:36:44.273Z,55.20
2023-01-23T13:39:16.809Z,52.70
2023-01-23T13:41:44.728Z,60.83
2023-01-23T13:44:40.874Z,52.10
2023-01-23T14:24:47.534Z,46.10
2023-01-23T14:27:52.270Z,45.50
2023-01-23T14:30:24.906Z,47.10
2023-01-23T14:32:51.802Z,39.50
2023-01-23T14:35:41.429Z,44.40
2023-01-23T14:38:08.267Z,47.13
2023-01-23T14:40:48.852Z,44.27
2023-01-23T14:43:28.082Z,46.00
2023-01-23T14:46:01.873Z,49.07
2023-01-23T14:48:29.482Z,47.13
2023-01-23T14:51:23.488Z,48.57
2023-01-23T14:54:05.173Z,43.43
2023-01-23T14:56:38.124Z,48.80
2023-01-23T14:59:07.146Z,49.73
2023-01-23T15:01:35.835Z,47.10
2023-01-23T15:04:21.310Z,51.07
2023-01-23T15:06:53.031Z,49.17
2023-01-23T15:09:32.301Z,47.67
2023-01-23T15:12:07.165Z,49.07
2023-01-23T15:14:43.548Z,45.80
2023-01-23T15:17:15.221Z,50.37
2023-01-23T15:19:42.155Z,51.97
2023-01-23T15:22:19.555Z,50.67
2023-01-23T15:24:46.855Z,46.30
2023-01-23T15:27:32.789Z,53.30
2023-01-23T15:30:33.198Z,49.03
2023-01-23T15:33:06.292Z,52.93
2023-01-23T15:35:37.888Z,50.43
2023-01-23T15:38:06.708Z,58.37
2023-01-23T15:40:38.701Z,53.03
2023-01-23T15:43:13.443Z,48.70
2023-01-23T15:45:40.433Z,59.50
2023-01-23T15:48:06.981Z,54.73
2023-01-23T15:50:33.687Z,55.50
2023-01-23T15:53:00.328Z,60.53
2023-01-23T15:55:27.350Z,73.40
2023-01-23T15:57:54.580Z,68.83
2023-01-23T16:00:27.187Z,64.50
2023-01-23T16:02:57.285Z,69.93
2023-01-23T16:05:35.367Z,61.73
2023-01-23T16:08:02.564Z,72.00
2023-01-23T16:10:31.774Z,60.50
2023-01-23T16:12:58.900Z,61.33
2023-01-23T16:15:30.801Z,63.20
2023-01-23T16:17:57.422Z,61.33
2023-01-23T16:20:28.536Z,62.93
2023-01-23T16:23:01.860Z,71.87
2023-01-23T16:25:44.000Z,63.03
2023-01-23T16:28:16.785Z,59.40
2023-01-23T16:30:44.232Z,72.23
2023-01-23T16:33:11.069Z,68.20
2023-01-23T16:35:37.742Z,63.10
2023-01-23T16:38:05.584Z,68.07
2023-01-23T16:40:32.711Z,65.20
2023-01-23T16:42:59.990Z,66.90
2023-01-23T16:45:28.675Z,59.87
2023-01-23T16:47:55.550Z,67.40
2023-01-23T16:50:34.027Z,68.10
2023-01-23T16:53:04.705Z,64.07
2023-01-23T16:55:41.912Z,70.97
2023-01-23T16:58:14.471Z,68.00
2023-01-23T17:00:44.494Z,65.60
2023-01-23T17:03:11.189Z,60.30
2023-01-23T17:05:37.840Z,56.23
2023-01-23T17:08:21.647Z,62.83
2023-01-23T17:10:51.193Z,62.57
2023-01-23T17:13:18.669Z,66.23
2023-01-23T17:15:45.566Z,66.17
2023-01-23T17:18:33.697Z,67.70
2023-01-23T17:21:00.488Z,64.03
2023-01-23T17:23:27.272Z,63.70
2023-01-23T17:26:00.731Z,63.20
2023-01-23T17:28:28.705Z,66.33
2023-01-23T17:50:44.381Z,64.37
2023-01-23T17:53:17.339Z,63.07
2023-01-23T17:55:48.057Z,69.70
2023-01-23T17:58:15.394Z,73.10
2023-01-23T18:00:43.428Z,68.07
2023-01-23T18:03:14.306Z,73.33
2023-01-23T18:05:40.947Z,68.67
2023-01-23T18:08:10.807Z,65.30
2023-01-23T18:10:37.867Z,72.40
2023-01-23T18:13:16.456Z,75.53
2023-01-23T18:16:12.937Z,73.10
2023-01-23T18:18:40.669Z,74.53
2023-01-23T18:21:14.045Z,79.50
2023-01-23T18:23:41.051Z,66.57
2023-01-23T18:26:16.445Z,71.80
2023-01-23T18:28:54.894Z,72.53
2023-01-23T18:31:27.484Z,73.93
2023-01-23T18:34:06.089Z,73.60
2023-01-23T18:36:53.482Z,70.23
2023-01-23T18:42:59.427Z,73.10
2023-01-23T18:45:27.635Z,71.83
2023-01-23T18:47:54.786Z,74.80
2023-01-23T18:50:27.103Z,74.63
2023-01-23T18:53:16.395Z,83.27
2023-01-23T18:55:48.592Z,82.20
2023-01-23T19:01:39.808Z,79.40
2023-01-23T19:04:13.642Z,69.40
2023-01-23T19:06:41.299Z,79.67
2023-01-23T19:09:18.523Z,77.37
2023-01-23T19:11:56.998Z,82.70
2023-01-23T19:14:50.787Z,74.57
2023-01-23T19:17:20.532Z,73.73
2023-01-23T19:20:01.003Z,73.93
2023-01-23T19:22:34.612Z,79.83
2023-01-23T19:25:01.486Z,75.70
2023-01-23T19:27:29.568Z,73.03
2023-01-23T19:29:56.249Z,76.77
2023-01-23T19:32:23.317Z,83.03
2023-01-23T19:34:49.804Z,73.83
2023-01-23T19:37:16.536Z,76.20
2023-01-23T19:39:43.334Z,80.33
2023-01-23T19:42:14.571Z,76.60
2023-01-23T19:44:41.681Z,77.13
2023-01-23T19:47:08.680Z,71.87
2023-01-23T19:49:35.827Z,72.77
2023-01-23T19:52:03.637Z,71.93
2023-01-23T19:54:30.429Z,71.60
2023-01-23T19:56:57.521Z,76.27
2023-01-23T19:59:25.165Z,76.57
2023-01-23T20:01:52.641Z,74.73
2023-01-23T20:04:21.339Z,81.57
2023-01-23T20:06:52.002Z,85.43
2023-01-23T20:09:18.968Z,81.60
2023-01-23T20:11:46.506Z,89.53
2023-01-23T20:14:13.663Z,84.83
2023-01-23T20:16:42.817Z,85.37
2023-01-23T20:19:13.980Z,88.53
2023-01-23T20:21:40.871Z,83.57
2023-01-23T20:24:08.457Z,90.67
2023-01-23T20:26:36.055Z,99.83
2023-01-23T20:29:04.190Z,104.27
2023-01-23T20:31:31.928Z,93.60
2023-01-23T20:33:58.625Z,93.10
2023-01-23T20:36:25.464Z,93.17
2023-01-23T20:38:52.162Z,95.60
2023-01-23T20:41:20.117Z,96.67
2023-01-23T20:43:47.235Z,100.60
2023-01-23T20:46:14.984Z,100.23
2023-01-23T20:48:46.130Z,113.80
2023-01-23T20:51:16.542Z,93.17
2023-01-23T20:53:43.164Z,112.90
2023-01-23T20:56:19.007Z,103.23
2023-01-23T20:59:06.229Z,112.67
2023-01-23T21:01:55.716Z,118.60
2023-01-23T21:04:23.955Z,120.27
2023-01-23T21:06:50.463Z,105.10
2023-01-23T21:09:17.501Z,113.67
2023-01-23T21:11:44.153Z,122.37
2023-01-23T21:14:11.278Z,111.83
2023-01-23T21:16:37.808Z,118.60
2023-01-23T21:19:04.298Z,113.87
2023-01-23T21:21:30.859Z,110.30
2023-01-23T21:23:57.556Z,115.07
2023-01-23T21:26:26.412Z,119.90
2023-01-23T21:28:54.337Z,109.63
2023-01-23T21:31:24.719Z,121.20
2023-01-23T21:33:51.425Z,120.27
2023-01-23T21:36:20.866Z,117.93
2023-01-23T21:38:47.573Z,128.80
2023-01-23T21:41:14.370Z,114.77
2023-01-23T21:43:42.227Z,120.77
2023-01-23T21:46:08.961Z,121.07
2023-01-23T21:48:35.998Z,124.33
2023-01-23T21:51:20.079Z,123.17
2023-01-23T21:53:48.389Z,130.63
2023-01-23T21:56:16.674Z,126.80
2023-01-23T21:58:43.547Z,122.60
2023-01-23T22:01:37.505Z,112.20
2023-01-23T22:04:07.274Z,107.30
2023-01-23T22:06:34.909Z,116.87
2023-01-23T22:09:01.545Z,122.97
2023-01-23T22:11:28.374Z,109.93
2023-01-23T22:13:55.389Z,108.67
2023-01-23T22:16:28.495Z,113.00
2023-01-23T22:19:06.966Z,116.60
2023-01-23T22:21:34.192Z,112.13
2023-01-23T22:24:01.479Z,124.93
2023-01-23T22:26:28.411Z,114.40
2023-01-23T22:28:55.027Z,114.30
2023-01-23T22:31:21.688Z,115.33
2023-01-23T22:33:48.763Z,110.67
2023-01-23T22:36:19.381Z,107.13
2023-01-23T22:38:55.832Z,110.07
2023-01-23T22:41:22.958Z,114.17
2023-01-23T22:43:54.248Z,111.73
2023-01-23T22:46:21.385Z,114.03
2023-01-23T22:48:47.910Z,99.03
2023-01-23T22:51:25.737Z,111.37
2023-01-23T22:53:53.592Z,107.10
2023-01-23T22:56:20.450Z,114.80
2023-01-23T22:58:48.196Z,112.87
2023-01-23T23:01:15.091Z,108.87
2023-01-23T23:03:41.681Z,111.60
2023-01-23T23:06:11.531Z,108.17
2023-01-23T23:08:38.273Z,108.07
2023-01-23T23:11:07.532Z,108.63
2023-01-23T23:13:36.942Z,127.93
2023-01-23T23:16:20.746Z,108.90
2023-01-23T23:18:48.658Z,113.10
2023-01-23T23:21:17.756Z,114.90
2023-01-23T23:23:44.392Z,113.70
2023-01-23T23:26:11.237Z,117.73
2023-01-23T23:28:38.830Z,116.40
2023-01-23T23:31:06.569Z,111.83
2023-01-23T23:33:33.308Z,106.93
2023-01-23T23:36:00.037Z,107.43
2023-01-23T23:38:26.548Z,118.10
2023-01-23T23:41:00.110Z,119.57
2023-01-23T23:43:27.360Z,115.60
2023-01-23T23:45:58.354Z,108.30
2023-01-23T23:48:25.908Z,110.93
2023-01-23T23:50:52.723Z,111.77
2023-01-23T23:53:19.317Z,117.37
2023-01-23T23:55:46.476Z,116.50
2023-01-23T23:58:13.093Z,112.30
